New Hamburg, Canada
Current Conditions -  °F | °C
As of 10:00 AM on Thursday 30 Oct 2014 (Local Time) from CYKF Reporting Station
Clear Clear  
Wind Chill: 34°   Ceiling: Unl
Heat Index: 41°   Visibility: 9mi
Dew Point: 36°   Wind: 12mph
Humidity: 81%   Direction: 310°NW
Pressure: 30.08"   Gusts: 17mph
Location:  43.38°N, 80.72°W
Report Text: CYKF 301400Z AUTO 31010G15KT 9SM CLR 05/02 A3008 RMK SLP192
Loading
Personal Weather Stations






























Interactive Weather Map
Tropical Storm Tracking
New forecast layout! Learn more

10-Day Weather Forecast

Advertisements
Track Severe Weather on mobile